sensor_id;sensor_type;location;lat;lon;timestamp;P1;durP1;ratioP1;P2;durP2;ratioP2
54430;SDS011;40342;52.998;5.862;2023-12-29T00:00:26;11.77;;;2.92;;
54430;SDS011;40342;52.998;5.862;2023-12-29T00:02:52;15.63;;;3.13;;
54430;SDS011;40342;52.998;5.862;2023-12-29T00:05:17;11.77;;;2.65;;
54430;SDS011;40342;52.998;5.862;2023-12-29T00:07:43;13.93;;;3.00;;
54430;SDS011;40342;52.998;5.862;2023-12-29T00:10:08;10.60;;;2.75;;
54430;SDS011;40342;52.998;5.862;2023-12-29T00:12:34;10.90;;;2.67;;
54430;SDS011;40342;52.998;5.862;2023-12-29T00:15:00;11.57;;;2.78;;
54430;SDS011;40342;52.998;5.862;2023-12-29T00:17:25;16.00;;;3.80;;
54430;SDS011;40342;52.998;5.862;2023-12-29T00:19:51;13.98;;;3.58;;
54430;SDS011;40342;52.998;5.862;2023-12-29T00:22:18;16.67;;;2.95;;
54430;SDS011;40342;52.998;5.862;2023-12-29T00:24:44;12.35;;;2.67;;
54430;SDS011;40342;52.998;5.862;2023-12-29T00:27:10;12.02;;;2.72;;
54430;SDS011;40342;52.998;5.862;2023-12-29T00:29:36;11.48;;;2.58;;
54430;SDS011;40342;52.998;5.862;2023-12-29T00:32:01;13.75;;;2.72;;
54430;SDS011;40342;52.998;5.862;2023-12-29T00:34:27;13.95;;;2.53;;
54430;SDS011;40342;52.998;5.862;2023-12-29T00:36:53;15.02;;;2.95;;
54430;SDS011;40342;52.998;5.862;2023-12-29T00:39:19;12.43;;;2.90;;
54430;SDS011;40342;52.998;5.862;2023-12-29T00:41:51;12.43;;;2.57;;
54430;SDS011;40342;52.998;5.862;2023-12-29T00:44:16;13.20;;;2.60;;
54430;SDS011;40342;52.998;5.862;2023-12-29T00:46:42;12.80;;;2.75;;
54430;SDS011;40342;52.998;5.862;2023-12-29T00:49:08;13.45;;;2.83;;
54430;SDS011;40342;52.998;5.862;2023-12-29T00:51:38;13.38;;;2.45;;
54430;SDS011;40342;52.998;5.862;2023-12-29T00:54:06;13.85;;;2.85;;
54430;SDS011;40342;52.998;5.862;2023-12-29T00:56:32;17.33;;;3.65;;
54430;SDS011;40342;52.998;5.862;2023-12-29T00:58:58;14.93;;;3.65;;
54430;SDS011;40342;52.998;5.862;2023-12-29T01:01:23;13.18;;;2.75;;
54430;SDS011;40342;52.998;5.862;2023-12-29T01:03:49;20.80;;;3.70;;
54430;SDS011;40342;52.998;5.862;2023-12-29T01:06:15;20.95;;;4.20;;
54430;SDS011;40342;52.998;5.862;2023-12-29T01:08:40;23.65;;;4.85;;
54430;SDS011;40342;52.998;5.862;2023-12-29T01:11:06;20.17;;;3.85;;
54430;SDS011;40342;52.998;5.862;2023-12-29T01:13:32;19.20;;;4.18;;
54430;SDS011;40342;52.998;5.862;2023-12-29T01:15:57;23.77;;;4.35;;
54430;SDS011;40342;52.998;5.862;2023-12-29T01:18:23;21.80;;;4.45;;
54430;SDS011;40342;52.998;5.862;2023-12-29T01:20:49;24.92;;;4.97;;
54430;SDS011;40342;52.998;5.862;2023-12-29T01:23:14;31.90;;;4.93;;
54430;SDS011;40342;52.998;5.862;2023-12-29T01:25:40;18.33;;;3.85;;
54430;SDS011;40342;52.998;5.862;2023-12-29T01:28:05;14.32;;;3.65;;
54430;SDS011;40342;52.998;5.862;2023-12-29T01:30:31;16.92;;;3.20;;
54430;SDS011;40342;52.998;5.862;2023-12-29T01:32:57;15.35;;;3.03;;
54430;SDS011;40342;52.998;5.862;2023-12-29T01:35:22;18.20;;;3.97;;
54430;SDS011;40342;52.998;5.862;2023-12-29T01:37:48;25.75;;;4.82;;
54430;SDS011;40342;52.998;5.862;2023-12-29T01:40:13;20.10;;;3.40;;
54430;SDS011;40342;52.998;5.862;2023-12-29T01:42:40;20.95;;;4.20;;
54430;SDS011;40342;52.998;5.862;2023-12-29T01:45:06;14.82;;;2.63;;
54430;SDS011;40342;52.998;5.862;2023-12-29T01:47:48;11.10;;;3.03;;
54430;SDS011;40342;52.998;5.862;2023-12-29T01:50:16;11.18;;;2.72;;
54430;SDS011;40342;52.998;5.862;2023-12-29T01:52:44;16.02;;;2.80;;
54430;SDS011;40342;52.998;5.862;2023-12-29T01:55:14;17.92;;;3.15;;
54430;SDS011;40342;52.998;5.862;2023-12-29T01:57:43;17.40;;;3.03;;
54430;SDS011;40342;52.998;5.862;2023-12-29T02:00:10;16.27;;;3.35;;
54430;SDS011;40342;52.998;5.862;2023-12-29T02:02:36;14.27;;;3.13;;
54430;SDS011;40342;52.998;5.862;2023-12-29T02:05:02;27.08;;;3.75;;
54430;SDS011;40342;52.998;5.862;2023-12-29T02:07:28;18.88;;;3.67;;
54430;SDS011;40342;52.998;5.862;2023-12-29T02:09:56;23.00;;;3.63;;
54430;SDS011;40342;52.998;5.862;2023-12-29T02:12:23;26.40;;;4.18;;
54430;SDS011;40342;52.998;5.862;2023-12-29T02:14:48;24.13;;;4.30;;
54430;SDS011;40342;52.998;5.862;2023-12-29T02:17:15;24.17;;;3.85;;
54430;SDS011;40342;52.998;5.862;2023-12-29T02:19:46;21.25;;;4.07;;
54430;SDS011;40342;52.998;5.862;2023-12-29T02:22:14;32.45;;;5.68;;
54430;SDS011;40342;52.998;5.862;2023-12-29T02:24:47;40.63;;;6.68;;
54430;SDS011;40342;52.998;5.862;2023-12-29T02:32:36;36.58;;;6.22;;
54430;SDS011;40342;52.998;5.862;2023-12-29T02:35:11;31.40;;;5.88;;
54430;SDS011;40342;52.998;5.862;2023-12-29T02:37:48;31.25;;;6.05;;
54430;SDS011;40342;52.998;5.862;2023-12-29T02:40:14;36.17;;;6.35;;
54430;SDS011;40342;52.998;5.862;2023-12-29T02:42:44;41.97;;;5.78;;
54430;SDS011;40342;52.998;5.862;2023-12-29T02:45:14;32.85;;;6.60;;
54430;SDS011;40342;52.998;5.862;2023-12-29T02:47:40;22.13;;;4.88;;
54430;SDS011;40342;52.998;5.862;2023-12-29T02:50:07;23.40;;;4.78;;
54430;SDS011;40342;52.998;5.862;2023-12-29T02:52:33;24.50;;;4.85;;
54430;SDS011;40342;52.998;5.862;2023-12-29T02:54:58;21.35;;;4.90;;
54430;SDS011;40342;52.998;5.862;2023-12-29T02:57:24;22.10;;;5.43;;
54430;SDS011;40342;52.998;5.862;2023-12-29T02:59:49;27.20;;;5.88;;
54430;SDS011;40342;52.998;5.862;2023-12-29T03:02:15;21.95;;;4.53;;
54430;SDS011;40342;52.998;5.862;2023-12-29T03:04:41;30.83;;;6.03;;
54430;SDS011;40342;52.998;5.862;2023-12-29T03:07:06;25.98;;;5.07;;
54430;SDS011;40342;52.998;5.862;2023-12-29T03:09:32;22.67;;;4.70;;
54430;SDS011;40342;52.998;5.862;2023-12-29T03:11:58;29.08;;;6.13;;
54430;SDS011;40342;52.998;5.862;2023-12-29T03:14:23;24.25;;;5.38;;
54430;SDS011;40342;52.998;5.862;2023-12-29T03:16:49;26.92;;;5.13;;
54430;SDS011;40342;52.998;5.862;2023-12-29T03:19:15;27.90;;;5.68;;
54430;SDS011;40342;52.998;5.862;2023-12-29T03:21:40;29.45;;;5.97;;
54430;SDS011;40342;52.998;5.862;2023-12-29T03:24:06;31.23;;;6.38;;
54430;SDS011;40342;52.998;5.862;2023-12-29T03:26:32;26.98;;;5.68;;
54430;SDS011;40342;52.998;5.862;2023-12-29T03:28:57;32.28;;;4.82;;
54430;SDS011;40342;52.998;5.862;2023-12-29T03:31:23;26.27;;;6.15;;
54430;SDS011;40342;52.998;5.862;2023-12-29T03:33:48;35.10;;;5.68;;
54430;SDS011;40342;52.998;5.862;2023-12-29T03:36:14;32.08;;;5.95;;
54430;SDS011;40342;52.998;5.862;2023-12-29T03:38:40;21.30;;;4.82;;
54430;SDS011;40342;52.998;5.862;2023-12-29T03:41:05;24.33;;;5.07;;
54430;SDS011;40342;52.998;5.862;2023-12-29T03:43:31;28.83;;;6.82;;
54430;SDS011;40342;52.998;5.862;2023-12-29T03:45:56;24.60;;;5.65;;
54430;SDS011;40342;52.998;5.862;2023-12-29T03:48:22;30.13;;;6.35;;
54430;SDS011;40342;52.998;5.862;2023-12-29T03:50:47;31.42;;;5.65;;
54430;SDS011;40342;52.998;5.862;2023-12-29T03:53:13;28.58;;;6.05;;
54430;SDS011;40342;52.998;5.862;2023-12-29T03:55:40;29.10;;;5.80;;
54430;SDS011;40342;52.998;5.862;2023-12-29T03:58:06;29.80;;;5.70;;
54430;SDS011;40342;52.998;5.862;2023-12-29T04:00:31;22.55;;;4.60;;
54430;SDS011;40342;52.998;5.862;2023-12-29T04:02:57;24.55;;;4.90;;
54430;SDS011;40342;52.998;5.862;2023-12-29T04:05:23;21.98;;;4.70;;
54430;SDS011;40342;52.998;5.862;2023-12-29T04:07:48;33.53;;;6.03;;
54430;SDS011;40342;52.998;5.862;2023-12-29T04:10:14;23.65;;;4.75;;
54430;SDS011;40342;52.998;5.862;2023-12-29T04:12:40;21.13;;;5.15;;
54430;SDS011;40342;52.998;5.862;2023-12-29T04:15:06;25.73;;;4.90;;
54430;SDS011;40342;52.998;5.862;2023-12-29T04:17:32;20.25;;;4.97;;
54430;SDS011;40342;52.998;5.862;2023-12-29T04:19:57;28.30;;;5.63;;
54430;SDS011;40342;52.998;5.862;2023-12-29T04:22:23;21.05;;;5.45;;
54430;SDS011;40342;52.998;5.862;2023-12-29T04:24:48;30.48;;;5.50;;
54430;SDS011;40342;52.998;5.862;2023-12-29T04:27:14;22.70;;;4.22;;
54430;SDS011;40342;52.998;5.862;2023-12-29T04:29:40;18.88;;;4.25;;
54430;SDS011;40342;52.998;5.862;2023-12-29T04:32:06;23.48;;;4.97;;
54430;SDS011;40342;52.998;5.862;2023-12-29T04:34:32;26.48;;;5.22;;
54430;SDS011;40342;52.998;5.862;2023-12-29T04:36:57;25.48;;;4.78;;
54430;SDS011;40342;52.998;5.862;2023-12-29T04:39:23;22.25;;;3.70;;
54430;SDS011;40342;52.998;5.862;2023-12-29T04:41:49;25.73;;;5.55;;
54430;SDS011;40342;52.998;5.862;2023-12-29T04:44:15;30.38;;;4.93;;
54430;SDS011;40342;52.998;5.862;2023-12-29T04:46:41;29.20;;;5.63;;
54430;SDS011;40342;52.998;5.862;2023-12-29T04:49:07;20.17;;;4.55;;
54430;SDS011;40342;52.998;5.862;2023-12-29T04:51:33;23.42;;;5.20;;
54430;SDS011;40342;52.998;5.862;2023-12-29T04:53:59;25.58;;;5.72;;
54430;SDS011;40342;52.998;5.862;2023-12-29T04:56:24;22.38;;;4.55;;
54430;SDS011;40342;52.998;5.862;2023-12-29T04:58:53;31.30;;;5.35;;
54430;SDS011;40342;52.998;5.862;2023-12-29T05:01:19;23.35;;;5.15;;
54430;SDS011;40342;52.998;5.862;2023-12-29T05:03:44;25.10;;;6.40;;
54430;SDS011;40342;52.998;5.862;2023-12-29T05:06:10;20.38;;;4.97;;
54430;SDS011;40342;52.998;5.862;2023-12-29T05:08:35;24.45;;;5.25;;
54430;SDS011;40342;52.998;5.862;2023-12-29T05:11:01;27.95;;;5.53;;
54430;SDS011;40342;52.998;5.862;2023-12-29T05:13:27;25.90;;;5.05;;
54430;SDS011;40342;52.998;5.862;2023-12-29T05:15:52;26.33;;;5.13;;
54430;SDS011;40342;52.998;5.862;2023-12-29T05:18:18;24.52;;;5.97;;
54430;SDS011;40342;52.998;5.862;2023-12-29T05:20:43;25.23;;;4.80;;
54430;SDS011;40342;52.998;5.862;2023-12-29T05:23:09;22.73;;;4.70;;
54430;SDS011;40342;52.998;5.862;2023-12-29T05:25:35;23.20;;;5.18;;
54430;SDS011;40342;52.998;5.862;2023-12-29T05:28:00;23.08;;;4.65;;
54430;SDS011;40342;52.998;5.862;2023-12-29T05:30:26;23.58;;;4.68;;
54430;SDS011;40342;52.998;5.862;2023-12-29T05:32:52;25.77;;;5.35;;
54430;SDS011;40342;52.998;5.862;2023-12-29T05:35:18;24.85;;;5.45;;
54430;SDS011;40342;52.998;5.862;2023-12-29T05:37:44;29.05;;;5.65;;
54430;SDS011;40342;52.998;5.862;2023-12-29T05:40:09;21.90;;;5.10;;
54430;SDS011;40342;52.998;5.862;2023-12-29T05:42:36;20.85;;;4.18;;
54430;SDS011;40342;52.998;5.862;2023-12-29T05:45:01;19.85;;;4.10;;
54430;SDS011;40342;52.998;5.862;2023-12-29T05:47:27;22.65;;;4.75;;
54430;SDS011;40342;52.998;5.862;2023-12-29T05:49:53;25.63;;;4.57;;
54430;SDS011;40342;52.998;5.862;2023-12-29T05:52:18;24.88;;;5.63;;
54430;SDS011;40342;52.998;5.862;2023-12-29T05:54:44;24.52;;;4.68;;
54430;SDS011;40342;52.998;5.862;2023-12-29T05:57:10;24.05;;;5.00;;
54430;SDS011;40342;52.998;5.862;2023-12-29T05:59:35;24.33;;;4.70;;
54430;SDS011;40342;52.998;5.862;2023-12-29T06:02:01;19.02;;;4.07;;
54430;SDS011;40342;52.998;5.862;2023-12-29T06:04:27;23.80;;;4.45;;
54430;SDS011;40342;52.998;5.862;2023-12-29T06:06:53;28.50;;;5.72;;
54430;SDS011;40342;52.998;5.862;2023-12-29T06:09:18;20.73;;;4.63;;
54430;SDS011;40342;52.998;5.862;2023-12-29T06:11:44;23.38;;;5.28;;
54430;SDS011;40342;52.998;5.862;2023-12-29T06:14:10;30.45;;;6.13;;
54430;SDS011;40342;52.998;5.862;2023-12-29T06:16:36;23.35;;;5.60;;
54430;SDS011;40342;52.998;5.862;2023-12-29T06:19:01;30.52;;;5.05;;
54430;SDS011;40342;52.998;5.862;2023-12-29T06:21:27;24.83;;;5.10;;
54430;SDS011;40342;52.998;5.862;2023-12-29T06:23:53;23.08;;;4.72;;
54430;SDS011;40342;52.998;5.862;2023-12-29T06:26:19;28.85;;;5.95;;
54430;SDS011;40342;52.998;5.862;2023-12-29T06:28:46;26.45;;;4.72;;
54430;SDS011;40342;52.998;5.862;2023-12-29T06:31:12;24.30;;;4.88;;
54430;SDS011;40342;52.998;5.862;2023-12-29T06:33:41;22.50;;;4.20;;
54430;SDS011;40342;52.998;5.862;2023-12-29T06:36:07;26.65;;;5.03;;
54430;SDS011;40342;52.998;5.862;2023-12-29T06:38:34;23.63;;;5.00;;
54430;SDS011;40342;52.998;5.862;2023-12-29T06:41:03;25.27;;;5.53;;
54430;SDS011;40342;52.998;5.862;2023-12-29T06:43:29;25.17;;;5.63;;
54430;SDS011;40342;52.998;5.862;2023-12-29T06:45:55;22.35;;;4.90;;
54430;SDS011;40342;52.998;5.862;2023-12-29T06:48:20;28.90;;;5.03;;
54430;SDS011;40342;52.998;5.862;2023-12-29T06:50:46;19.45;;;4.38;;
54430;SDS011;40342;52.998;5.862;2023-12-29T06:53:12;25.58;;;5.82;;
54430;SDS011;40342;52.998;5.862;2023-12-29T06:55:37;25.98;;;5.40;;
54430;SDS011;40342;52.998;5.862;2023-12-29T06:58:07;23.55;;;4.85;;
54430;SDS011;40342;52.998;5.862;2023-12-29T07:00:32;28.05;;;4.82;;
54430;SDS011;40342;52.998;5.862;2023-12-29T07:02:59;24.25;;;5.43;;
54430;SDS011;40342;52.998;5.862;2023-12-29T07:05:26;22.85;;;5.15;;
54430;SDS011;40342;52.998;5.862;2023-12-29T07:07:51;26.23;;;5.80;;
54430;SDS011;40342;52.998;5.862;2023-12-29T07:10:17;23.30;;;4.20;;
54430;SDS011;40342;52.998;5.862;2023-12-29T07:12:43;24.30;;;5.07;;
54430;SDS011;40342;52.998;5.862;2023-12-29T07:15:09;31.17;;;6.13;;
54430;SDS011;40342;52.998;5.862;2023-12-29T07:17:34;35.33;;;5.63;;
54430;SDS011;40342;52.998;5.862;2023-12-29T07:20:00;25.80;;;5.80;;
54430;SDS011;40342;52.998;5.862;2023-12-29T07:22:26;35.70;;;6.78;;
54430;SDS011;40342;52.998;5.862;2023-12-29T07:24:52;27.17;;;5.22;;
54430;SDS011;40342;52.998;5.862;2023-12-29T07:27:18;31.33;;;5.25;;
54430;SDS011;40342;52.998;5.862;2023-12-29T07:29:43;31.95;;;5.28;;
54430;SDS011;40342;52.998;5.862;2023-12-29T07:32:09;30.73;;;5.18;;
54430;SDS011;40342;52.998;5.862;2023-12-29T07:34:35;20.48;;;5.47;;
54430;SDS011;40342;52.998;5.862;2023-12-29T07:37:00;32.70;;;5.53;;
54430;SDS011;40342;52.998;5.862;2023-12-29T07:39:26;26.98;;;5.45;;
54430;SDS011;40342;52.998;5.862;2023-12-29T07:41:52;28.55;;;5.25;;
54430;SDS011;40342;52.998;5.862;2023-12-29T07:44:18;25.38;;;4.68;;
54430;SDS011;40342;52.998;5.862;2023-12-29T07:46:45;28.45;;;7.13;;
54430;SDS011;40342;52.998;5.862;2023-12-29T07:49:11;25.70;;;5.53;;
54430;SDS011;40342;52.998;5.862;2023-12-29T07:51:40;28.98;;;5.95;;
54430;SDS011;40342;52.998;5.862;2023-12-29T07:54:07;26.50;;;5.72;;
54430;SDS011;40342;52.998;5.862;2023-12-29T07:56:33;32.28;;;6.15;;
54430;SDS011;40342;52.998;5.862;2023-12-29T07:58:59;31.38;;;6.15;;
54430;SDS011;40342;52.998;5.862;2023-12-29T08:01:25;34.72;;;6.90;;
54430;SDS011;40342;52.998;5.862;2023-12-29T08:03:52;29.58;;;6.97;;
54430;SDS011;40342;52.998;5.862;2023-12-29T08:06:17;24.48;;;5.68;;
54430;SDS011;40342;52.998;5.862;2023-12-29T08:08:43;29.08;;;5.53;;
54430;SDS011;40342;52.998;5.862;2023-12-29T08:11:12;23.02;;;5.00;;
54430;SDS011;40342;52.998;5.862;2023-12-29T08:13:40;22.90;;;5.40;;
54430;SDS011;40342;52.998;5.862;2023-12-29T08:16:05;26.15;;;4.93;;
54430;SDS011;40342;52.998;5.862;2023-12-29T08:18:32;27.20;;;4.70;;
54430;SDS011;40342;52.998;5.862;2023-12-29T08:20:58;30.98;;;5.63;;
54430;SDS011;40342;52.998;5.862;2023-12-29T08:23:25;31.67;;;5.28;;
54430;SDS011;40342;52.998;5.862;2023-12-29T08:25:51;31.48;;;6.50;;
54430;SDS011;40342;52.998;5.862;2023-12-29T08:28:17;26.23;;;5.45;;
54430;SDS011;40342;52.998;5.862;2023-12-29T08:30:43;29.45;;;5.82;;
54430;SDS011;40342;52.998;5.862;2023-12-29T08:33:11;28.08;;;5.05;;
54430;SDS011;40342;52.998;5.862;2023-12-29T08:35:39;31.10;;;5.20;;
54430;SDS011;40342;52.998;5.862;2023-12-29T08:38:05;30.33;;;5.78;;
54430;SDS011;40342;52.998;5.862;2023-12-29T08:40:31;30.15;;;5.65;;
54430;SDS011;40342;52.998;5.862;2023-12-29T08:42:57;33.38;;;6.40;;
54430;SDS011;40342;52.998;5.862;2023-12-29T08:45:22;26.13;;;5.05;;
54430;SDS011;40342;52.998;5.862;2023-12-29T08:47:48;26.88;;;5.72;;
54430;SDS011;40342;52.998;5.862;2023-12-29T08:50:14;27.83;;;5.65;;
54430;SDS011;40342;52.998;5.862;2023-12-29T08:52:40;23.38;;;4.65;;
54430;SDS011;40342;52.998;5.862;2023-12-29T08:55:06;28.42;;;5.70;;
54430;SDS011;40342;52.998;5.862;2023-12-29T08:57:33;21.88;;;4.38;;
54430;SDS011;40342;52.998;5.862;2023-12-29T08:59:59;29.52;;;5.50;;
54430;SDS011;40342;52.998;5.862;2023-12-29T09:02:25;30.65;;;6.25;;
54430;SDS011;40342;52.998;5.862;2023-12-29T09:04:50;28.73;;;4.50;;
54430;SDS011;40342;52.998;5.862;2023-12-29T09:07:16;26.17;;;4.70;;
54430;SDS011;40342;52.998;5.862;2023-12-29T09:09:42;25.73;;;4.55;;
54430;SDS011;40342;52.998;5.862;2023-12-29T09:12:07;26.60;;;4.57;;
54430;SDS011;40342;52.998;5.862;2023-12-29T09:14:33;25.63;;;5.30;;
54430;SDS011;40342;52.998;5.862;2023-12-29T09:16:59;28.27;;;5.63;;
54430;SDS011;40342;52.998;5.862;2023-12-29T09:19:25;24.65;;;5.32;;
54430;SDS011;40342;52.998;5.862;2023-12-29T09:21:51;22.08;;;4.35;;
54430;SDS011;40342;52.998;5.862;2023-12-29T09:24:17;31.00;;;5.95;;
54430;SDS011;40342;52.998;5.862;2023-12-29T09:26:42;21.50;;;4.78;;
54430;SDS011;40342;52.998;5.862;2023-12-29T09:29:09;26.95;;;5.22;;
54430;SDS011;40342;52.998;5.862;2023-12-29T09:31:34;24.77;;;4.38;;
54430;SDS011;40342;52.998;5.862;2023-12-29T09:34:01;27.52;;;5.03;;
54430;SDS011;40342;52.998;5.862;2023-12-29T09:36:27;21.40;;;5.03;;
54430;SDS011;40342;52.998;5.862;2023-12-29T09:38:52;25.02;;;5.85;;
54430;SDS011;40342;52.998;5.862;2023-12-29T09:41:18;26.83;;;4.32;;
54430;SDS011;40342;52.998;5.862;2023-12-29T09:43:46;21.23;;;4.28;;
54430;SDS011;40342;52.998;5.862;2023-12-29T09:46:16;25.48;;;5.28;;
54430;SDS011;40342;52.998;5.862;2023-12-29T09:48:45;18.98;;;3.85;;
54430;SDS011;40342;52.998;5.862;2023-12-29T09:51:12;20.88;;;3.88;;
54430;SDS011;40342;52.998;5.862;2023-12-29T09:53:38;19.58;;;3.70;;
54430;SDS011;40342;52.998;5.862;2023-12-29T09:56:07;20.42;;;3.83;;
54430;SDS011;40342;52.998;5.862;2023-12-29T09:58:34;17.13;;;3.30;;
54430;SDS011;40342;52.998;5.862;2023-12-29T10:01:06;22.25;;;4.30;;
54430;SDS011;40342;52.998;5.862;2023-12-29T10:03:31;15.77;;;3.42;;
54430;SDS011;40342;52.998;5.862;2023-12-29T10:05:59;14.75;;;3.40;;
54430;SDS011;40342;52.998;5.862;2023-12-29T10:08:28;17.77;;;3.28;;
54430;SDS011;40342;52.998;5.862;2023-12-29T10:10:58;15.73;;;3.95;;
54430;SDS011;40342;52.998;5.862;2023-12-29T10:13:26;20.67;;;4.20;;
54430;SDS011;40342;52.998;5.862;2023-12-29T10:16:13;18.60;;;3.75;;
54430;SDS011;40342;52.998;5.862;2023-12-29T10:18:49;16.30;;;3.40;;
54430;SDS011;40342;52.998;5.862;2023-12-29T10:21:48;18.27;;;4.13;;
54430;SDS011;40342;52.998;5.862;2023-12-29T10:24:17;23.73;;;3.55;;
54430;SDS011;40342;52.998;5.862;2023-12-29T10:26:45;19.55;;;3.55;;
54430;SDS011;40342;52.998;5.862;2023-12-29T10:29:12;20.73;;;4.13;;
54430;SDS011;40342;52.998;5.862;2023-12-29T10:31:38;14.57;;;2.83;;
54430;SDS011;40342;52.998;5.862;2023-12-29T10:37:01;15.07;;;3.15;;
54430;SDS011;40342;52.998;5.862;2023-12-29T10:39:42;16.63;;;2.95;;
54430;SDS011;40342;52.998;5.862;2023-12-29T10:42:20;17.80;;;4.28;;
54430;SDS011;40342;52.998;5.862;2023-12-29T10:44:46;18.42;;;3.40;;
54430;SDS011;40342;52.998;5.862;2023-12-29T10:47:11;14.18;;;2.95;;
54430;SDS011;40342;52.998;5.862;2023-12-29T10:49:39;19.92;;;3.65;;
54430;SDS011;40342;52.998;5.862;2023-12-29T10:52:15;15.80;;;3.47;;
54430;SDS011;40342;52.998;5.862;2023-12-29T10:54:41;17.75;;;3.55;;
54430;SDS011;40342;52.998;5.862;2023-12-29T10:57:08;11.27;;;3.35;;
54430;SDS011;40342;52.998;5.862;2023-12-29T10:59:35;14.73;;;3.08;;
54430;SDS011;40342;52.998;5.862;2023-12-29T11:02:01;19.05;;;2.97;;
54430;SDS011;40342;52.998;5.862;2023-12-29T11:04:28;13.80;;;3.08;;
54430;SDS011;40342;52.998;5.862;2023-12-29T11:06:54;11.27;;;2.65;;
54430;SDS011;40342;52.998;5.862;2023-12-29T11:09:31;11.30;;;3.05;;
54430;SDS011;40342;52.998;5.862;2023-12-29T11:12:01;12.15;;;2.85;;
54430;SDS011;40342;52.998;5.862;2023-12-29T11:14:28;14.07;;;3.05;;
54430;SDS011;40342;52.998;5.862;2023-12-29T11:16:54;9.15;;;2.88;;
54430;SDS011;40342;52.998;5.862;2023-12-29T11:19:20;12.70;;;3.00;;
54430;SDS011;40342;52.998;5.862;2023-12-29T11:21:46;10.00;;;2.47;;
54430;SDS011;40342;52.998;5.862;2023-12-29T11:24:17;11.75;;;2.50;;
54430;SDS011;40342;52.998;5.862;2023-12-29T11:26:43;10.95;;;2.13;;
54430;SDS011;40342;52.998;5.862;2023-12-29T11:29:09;17.17;;;3.50;;
54430;SDS011;40342;52.998;5.862;2023-12-29T11:31:37;16.65;;;4.25;;
54430;SDS011;40342;52.998;5.862;2023-12-29T11:34:05;15.05;;;2.72;;
54430;SDS011;40342;52.998;5.862;2023-12-29T11:36:38;17.98;;;3.17;;
54430;SDS011;40342;52.998;5.862;2023-12-29T11:44:32;10.15;;;2.50;;
54430;SDS011;40342;52.998;5.862;2023-12-29T11:46:58;11.88;;;2.28;;
54430;SDS011;40342;52.998;5.862;2023-12-29T11:49:25;11.70;;;2.50;;
54430;SDS011;40342;52.998;5.862;2023-12-29T11:51:51;10.00;;;2.88;;
54430;SDS011;40342;52.998;5.862;2023-12-29T11:54:24;16.48;;;3.15;;
54430;SDS011;40342;52.998;5.862;2023-12-29T11:56:50;11.13;;;2.28;;
54430;SDS011;40342;52.998;5.862;2023-12-29T11:59:18;15.73;;;2.80;;
54430;SDS011;40342;52.998;5.862;2023-12-29T12:01:55;9.60;;;2.42;;
54430;SDS011;40342;52.998;5.862;2023-12-29T12:04:38;12.30;;;2.63;;
54430;SDS011;40342;52.998;5.862;2023-12-29T12:12:55;9.35;;;2.53;;
54430;SDS011;40342;52.998;5.862;2023-12-29T12:17:58;14.75;;;3.03;;
54430;SDS011;40342;52.998;5.862;2023-12-29T12:20:25;11.15;;;2.65;;
54430;SDS011;40342;52.998;5.862;2023-12-29T12:22:58;12.18;;;2.70;;
54430;SDS011;40342;52.998;5.862;2023-12-29T12:25:30;10.43;;;2.63;;
54430;SDS011;40342;52.998;5.862;2023-12-29T12:27:59;15.77;;;3.40;;
54430;SDS011;40342;52.998;5.862;2023-12-29T12:30:27;19.65;;;2.90;;
54430;SDS011;40342;52.998;5.862;2023-12-29T12:32:57;13.35;;;2.85;;
54430;SDS011;40342;52.998;5.862;2023-12-29T12:35:23;17.52;;;3.38;;
54430;SDS011;40342;52.998;5.862;2023-12-29T12:38:02;12.63;;;2.88;;
54430;SDS011;40342;52.998;5.862;2023-12-29T12:40:47;13.48;;;3.53;;
54430;SDS011;40342;52.998;5.862;2023-12-29T12:43:13;15.43;;;3.05;;
54430;SDS011;40342;52.998;5.862;2023-12-29T12:45:41;10.02;;;3.25;;
54430;SDS011;40342;52.998;5.862;2023-12-29T12:48:24;13.50;;;2.60;;
54430;SDS011;40342;52.998;5.862;2023-12-29T12:51:08;13.38;;;2.92;;
54430;SDS011;40342;52.998;5.862;2023-12-29T12:53:34;12.98;;;2.75;;
54430;SDS011;40342;52.998;5.862;2023-12-29T12:56:09;11.73;;;2.83;;
54430;SDS011;40342;52.998;5.862;2023-12-29T12:58:35;12.90;;;2.97;;
54430;SDS011;40342;52.998;5.862;2023-12-29T13:01:01;17.55;;;2.72;;
54430;SDS011;40342;52.998;5.862;2023-12-29T13:03:27;14.93;;;2.83;;
54430;SDS011;40342;52.998;5.862;2023-12-29T13:05:55;13.13;;;3.25;;
54430;SDS011;40342;52.998;5.862;2023-12-29T13:08:23;12.60;;;3.53;;
54430;SDS011;40342;52.998;5.862;2023-12-29T13:10:50;15.15;;;3.58;;
54430;SDS011;40342;52.998;5.862;2023-12-29T13:13:16;15.82;;;2.90;;
54430;SDS011;40342;52.998;5.862;2023-12-29T13:15:50;17.45;;;3.20;;
54430;SDS011;40342;52.998;5.862;2023-12-29T13:20:43;11.32;;;2.85;;
54430;SDS011;40342;52.998;5.862;2023-12-29T13:23:10;12.70;;;2.88;;
54430;SDS011;40342;52.998;5.862;2023-12-29T13:25:35;12.52;;;3.47;;
54430;SDS011;40342;52.998;5.862;2023-12-29T13:28:03;21.38;;;3.92;;
54430;SDS011;40342;52.998;5.862;2023-12-29T13:30:31;15.07;;;2.50;;
54430;SDS011;40342;52.998;5.862;2023-12-29T13:32:57;14.88;;;2.55;;
54430;SDS011;40342;52.998;5.862;2023-12-29T13:35:37;12.82;;;3.35;;
54430;SDS011;40342;52.998;5.862;2023-12-29T13:38:17;13.65;;;2.97;;
54430;SDS011;40342;52.998;5.862;2023-12-29T13:40:55;16.65;;;2.28;;
54430;SDS011;40342;52.998;5.862;2023-12-29T13:43:25;13.95;;;3.25;;
54430;SDS011;40342;52.998;5.862;2023-12-29T13:45:53;17.58;;;3.70;;
54430;SDS011;40342;52.998;5.862;2023-12-29T13:48:20;11.90;;;2.17;;
54430;SDS011;40342;52.998;5.862;2023-12-29T13:50:47;13.00;;;2.70;;
54430;SDS011;40342;52.998;5.862;2023-12-29T13:53:20;17.52;;;3.45;;
54430;SDS011;40342;52.998;5.862;2023-12-29T13:55:46;18.20;;;3.78;;
54430;SDS011;40342;52.998;5.862;2023-12-29T13:58:12;12.73;;;2.88;;
54430;SDS011;40342;52.998;5.862;2023-12-29T14:00:41;17.83;;;2.75;;
54430;SDS011;40342;52.998;5.862;2023-12-29T14:03:27;16.85;;;3.55;;
54430;SDS011;40342;52.998;5.862;2023-12-29T14:06:03;15.30;;;3.05;;
54430;SDS011;40342;52.998;5.862;2023-12-29T14:11:06;14.23;;;2.65;;
54430;SDS011;40342;52.998;5.862;2023-12-29T14:13:35;14.13;;;2.88;;
54430;SDS011;40342;52.998;5.862;2023-12-29T14:16:06;16.55;;;3.03;;
54430;SDS011;40342;52.998;5.862;2023-12-29T14:21:28;14.63;;;3.47;;
54430;SDS011;40342;52.998;5.862;2023-12-29T14:24:11;13.85;;;3.00;;
54430;SDS011;40342;52.998;5.862;2023-12-29T14:26:38;16.02;;;4.00;;
54430;SDS011;40342;52.998;5.862;2023-12-29T14:29:07;12.73;;;2.80;;
54430;SDS011;40342;52.998;5.862;2023-12-29T14:34:07;15.20;;;2.95;;
54430;SDS011;40342;52.998;5.862;2023-12-29T14:36:33;13.50;;;3.00;;
54430;SDS011;40342;52.998;5.862;2023-12-29T14:39:00;15.80;;;3.05;;
54430;SDS011;40342;52.998;5.862;2023-12-29T14:41:26;16.80;;;2.72;;
54430;SDS011;40342;52.998;5.862;2023-12-29T14:43:52;11.75;;;2.90;;
54430;SDS011;40342;52.998;5.862;2023-12-29T14:46:18;16.42;;;3.22;;
54430;SDS011;40342;52.998;5.862;2023-12-29T14:48:44;13.15;;;2.83;;
54430;SDS011;40342;52.998;5.862;2023-12-29T14:51:10;18.33;;;3.28;;
54430;SDS011;40342;52.998;5.862;2023-12-29T14:53:36;16.63;;;3.40;;
54430;SDS011;40342;52.998;5.862;2023-12-29T14:56:02;11.98;;;2.95;;
54430;SDS011;40342;52.998;5.862;2023-12-29T14:58:28;11.75;;;2.20;;
54430;SDS011;40342;52.998;5.862;2023-12-29T15:00:55;16.55;;;2.70;;
54430;SDS011;40342;52.998;5.862;2023-12-29T15:03:20;12.98;;;3.53;;
54430;SDS011;40342;52.998;5.862;2023-12-29T15:05:47;12.73;;;2.83;;
54430;SDS011;40342;52.998;5.862;2023-12-29T15:08:13;13.95;;;2.95;;